sensor_id;sensor_type;location;lat;lon;timestamp;P1;durP1;ratioP1;P2;durP2;ratioP2
12177;SDS011;6152;48.728;9.256;2022-09-01T00:02:13;31.05;;;20.58;;
12177;SDS011;6152;48.728;9.256;2022-09-01T00:04:41;27.98;;;20.95;;
12177;SDS011;6152;48.728;9.256;2022-09-01T00:07:08;27.88;;;21.65;;
12177;SDS011;6152;48.728;9.256;2022-09-01T00:09:37;28.92;;;22.00;;
12177;SDS011;6152;48.728;9.256;2022-09-01T00:12:05;27.35;;;20.83;;
12177;SDS011;6152;48.728;9.256;2022-09-01T00:14:33;26.48;;;20.83;;
12177;SDS011;6152;48.728;9.256;2022-09-01T00:17:03;30.45;;;21.58;;
12177;SDS011;6152;48.728;9.256;2022-09-01T00:19:32;28.88;;;21.73;;
12177;SDS011;6152;48.728;9.256;2022-09-01T00:21:59;27.17;;;21.40;;
12177;SDS011;6152;48.728;9.256;2022-09-01T00:24:26;27.77;;;20.77;;
12177;SDS011;6152;48.728;9.256;2022-09-01T00:26:53;28.90;;;21.25;;
12177;SDS011;6152;48.728;9.256;2022-09-01T00:29:20;29.83;;;21.50;;
12177;SDS011;6152;48.728;9.256;2022-09-01T00:31:48;29.85;;;21.38;;
12177;SDS011;6152;48.728;9.256;2022-09-01T00:34:15;29.60;;;21.30;;
12177;SDS011;6152;48.728;9.256;2022-09-01T00:36:41;27.42;;;20.85;;
12177;SDS011;6152;48.728;9.256;2022-09-01T00:39:08;27.02;;;21.00;;
12177;SDS011;6152;48.728;9.256;2022-09-01T00:41:36;27.70;;;21.20;;
12177;SDS011;6152;48.728;9.256;2022-09-01T00:44:05;26.38;;;19.52;;
12177;SDS011;6152;48.728;9.256;2022-09-01T00:46:41;28.00;;;20.83;;
12177;SDS011;6152;48.728;9.256;2022-09-01T00:49:14;28.90;;;21.58;;
12177;SDS011;6152;48.728;9.256;2022-09-01T00:51:42;27.27;;;20.13;;
12177;SDS011;6152;48.728;9.256;2022-09-01T00:54:12;24.30;;;18.08;;
12177;SDS011;6152;48.728;9.256;2022-09-01T00:56:43;28.08;;;19.65;;
12177;SDS011;6152;48.728;9.256;2022-09-01T00:59:10;24.45;;;18.80;;
12177;SDS011;6152;48.728;9.256;2022-09-01T01:01:37;29.45;;;19.30;;
12177;SDS011;6152;48.728;9.256;2022-09-01T01:04:05;27.17;;;19.17;;
12177;SDS011;6152;48.728;9.256;2022-09-01T01:06:39;25.98;;;18.88;;
12177;SDS011;6152;48.728;9.256;2022-09-01T01:09:07;27.77;;;19.90;;
12177;SDS011;6152;48.728;9.256;2022-09-01T01:11:34;29.27;;;20.33;;
12177;SDS011;6152;48.728;9.256;2022-09-01T01:14:02;31.98;;;20.08;;
12177;SDS011;6152;48.728;9.256;2022-09-01T01:16:36;26.73;;;19.85;;
12177;SDS011;6152;48.728;9.256;2022-09-01T01:22:41;29.10;;;19.85;;
12177;SDS011;6152;48.728;9.256;2022-09-01T01:30:43;27.27;;;19.73;;
12177;SDS011;6152;48.728;9.256;2022-09-01T01:33:16;29.35;;;20.02;;
12177;SDS011;6152;48.728;9.256;2022-09-01T01:35:44;28.88;;;19.88;;
12177;SDS011;6152;48.728;9.256;2022-09-01T01:38:11;29.30;;;20.27;;
12177;SDS011;6152;48.728;9.256;2022-09-01T01:40:39;28.70;;;20.67;;
12177;SDS011;6152;48.728;9.256;2022-09-01T01:43:05;28.20;;;19.45;;
12177;SDS011;6152;48.728;9.256;2022-09-01T01:45:32;25.50;;;19.00;;
12177;SDS011;6152;48.728;9.256;2022-09-01T01:47:58;30.23;;;20.58;;
12177;SDS011;6152;48.728;9.256;2022-09-01T01:50:26;25.80;;;19.65;;
12177;SDS011;6152;48.728;9.256;2022-09-01T01:52:59;24.95;;;19.55;;
12177;SDS011;6152;48.728;9.256;2022-09-01T01:55:27;27.63;;;19.52;;
12177;SDS011;6152;48.728;9.256;2022-09-01T01:57:55;27.70;;;20.33;;
12177;SDS011;6152;48.728;9.256;2022-09-01T02:00:24;25.75;;;19.77;;
12177;SDS011;6152;48.728;9.256;2022-09-01T02:02:52;27.85;;;20.17;;
12177;SDS011;6152;48.728;9.256;2022-09-01T02:05:20;26.23;;;19.15;;
12177;SDS011;6152;48.728;9.256;2022-09-01T02:07:49;27.23;;;19.83;;
12177;SDS011;6152;48.728;9.256;2022-09-01T02:10:24;27.35;;;19.63;;
12177;SDS011;6152;48.728;9.256;2022-09-01T02:12:53;25.88;;;19.42;;
12177;SDS011;6152;48.728;9.256;2022-09-01T02:15:21;27.58;;;19.55;;
12177;SDS011;6152;48.728;9.256;2022-09-01T02:17:47;24.58;;;18.65;;
12177;SDS011;6152;48.728;9.256;2022-09-01T02:20:15;27.63;;;20.00;;
12177;SDS011;6152;48.728;9.256;2022-09-01T02:22:42;28.98;;;20.67;;
12177;SDS011;6152;48.728;9.256;2022-09-01T02:25:08;26.33;;;19.90;;
12177;SDS011;6152;48.728;9.256;2022-09-01T02:27:36;27.65;;;20.30;;
12177;SDS011;6152;48.728;9.256;2022-09-01T02:30:03;30.42;;;21.05;;
12177;SDS011;6152;48.728;9.256;2022-09-01T02:32:34;31.52;;;20.73;;
12177;SDS011;6152;48.728;9.256;2022-09-01T02:35:01;31.48;;;21.45;;
12177;SDS011;6152;48.728;9.256;2022-09-01T02:37:31;26.63;;;20.05;;
12177;SDS011;6152;48.728;9.256;2022-09-01T02:39:57;32.97;;;21.75;;
12177;SDS011;6152;48.728;9.256;2022-09-01T02:42:24;29.60;;;20.80;;
12177;SDS011;6152;48.728;9.256;2022-09-01T02:44:54;28.50;;;21.08;;
12177;SDS011;6152;48.728;9.256;2022-09-01T02:47:21;29.02;;;21.15;;
12177;SDS011;6152;48.728;9.256;2022-09-01T02:49:52;32.30;;;21.40;;
12177;SDS011;6152;48.728;9.256;2022-09-01T02:52:18;26.85;;;20.13;;
12177;SDS011;6152;48.728;9.256;2022-09-01T02:54:45;32.47;;;21.63;;
12177;SDS011;6152;48.728;9.256;2022-09-01T02:57:13;30.42;;;21.17;;
12177;SDS011;6152;48.728;9.256;2022-09-01T02:59:40;30.38;;;22.08;;
12177;SDS011;6152;48.728;9.256;2022-09-01T03:02:07;31.92;;;20.92;;
12177;SDS011;6152;48.728;9.256;2022-09-01T03:04:33;27.42;;;19.95;;
12177;SDS011;6152;48.728;9.256;2022-09-01T03:07:04;28.30;;;20.92;;
12177;SDS011;6152;48.728;9.256;2022-09-01T03:09:32;29.08;;;20.73;;
12177;SDS011;6152;48.728;9.256;2022-09-01T03:11:59;30.88;;;20.83;;
12177;SDS011;6152;48.728;9.256;2022-09-01T03:14:25;30.17;;;20.17;;
12177;SDS011;6152;48.728;9.256;2022-09-01T03:16:53;33.15;;;22.05;;
12177;SDS011;6152;48.728;9.256;2022-09-01T03:19:20;29.02;;;20.35;;
12177;SDS011;6152;48.728;9.256;2022-09-01T03:21:47;30.95;;;21.52;;
12177;SDS011;6152;48.728;9.256;2022-09-01T03:24:13;31.90;;;20.55;;
12177;SDS011;6152;48.728;9.256;2022-09-01T03:26:42;29.02;;;21.20;;
12177;SDS011;6152;48.728;9.256;2022-09-01T03:29:10;30.42;;;20.35;;
12177;SDS011;6152;48.728;9.256;2022-09-01T03:31:37;32.78;;;21.80;;
12177;SDS011;6152;48.728;9.256;2022-09-01T03:34:03;33.22;;;22.10;;
12177;SDS011;6152;48.728;9.256;2022-09-01T03:36:30;32.88;;;21.73;;
12177;SDS011;6152;48.728;9.256;2022-09-01T03:38:57;32.97;;;21.10;;
12177;SDS011;6152;48.728;9.256;2022-09-01T03:41:25;31.40;;;20.73;;
12177;SDS011;6152;48.728;9.256;2022-09-01T03:43:53;35.80;;;22.55;;
12177;SDS011;6152;48.728;9.256;2022-09-01T03:46:22;33.40;;;22.52;;
12177;SDS011;6152;48.728;9.256;2022-09-01T03:48:50;31.17;;;21.02;;
12177;SDS011;6152;48.728;9.256;2022-09-01T03:51:23;34.65;;;21.75;;
12177;SDS011;6152;48.728;9.256;2022-09-01T03:53:51;33.75;;;22.15;;
12177;SDS011;6152;48.728;9.256;2022-09-01T03:56:18;34.28;;;21.90;;
12177;SDS011;6152;48.728;9.256;2022-09-01T03:58:45;33.22;;;21.45;;
12177;SDS011;6152;48.728;9.256;2022-09-01T04:01:12;30.77;;;20.80;;
12177;SDS011;6152;48.728;9.256;2022-09-01T04:03:39;33.28;;;22.98;;
12177;SDS011;6152;48.728;9.256;2022-09-01T04:06:09;33.92;;;23.15;;
12177;SDS011;6152;48.728;9.256;2022-09-01T04:08:35;33.42;;;23.23;;
12177;SDS011;6152;48.728;9.256;2022-09-01T04:11:03;34.53;;;22.63;;
12177;SDS011;6152;48.728;9.256;2022-09-01T04:13:37;36.20;;;22.60;;
12177;SDS011;6152;48.728;9.256;2022-09-01T04:16:05;32.05;;;21.25;;
12177;SDS011;6152;48.728;9.256;2022-09-01T04:19:00;29.95;;;20.70;;
12177;SDS011;6152;48.728;9.256;2022-09-01T04:21:39;31.85;;;22.23;;
12177;SDS011;6152;48.728;9.256;2022-09-01T04:24:07;31.58;;;21.92;;
12177;SDS011;6152;48.728;9.256;2022-09-01T04:26:34;31.77;;;21.00;;
12177;SDS011;6152;48.728;9.256;2022-09-01T04:29:02;37.38;;;22.25;;
12177;SDS011;6152;48.728;9.256;2022-09-01T04:31:28;34.90;;;23.02;;
12177;SDS011;6152;48.728;9.256;2022-09-01T04:33:55;32.33;;;23.33;;
12177;SDS011;6152;48.728;9.256;2022-09-01T04:36:28;34.78;;;22.25;;
12177;SDS011;6152;48.728;9.256;2022-09-01T04:39:01;31.50;;;21.13;;
12177;SDS011;6152;48.728;9.256;2022-09-01T04:41:33;31.17;;;21.20;;
12177;SDS011;6152;48.728;9.256;2022-09-01T04:44:03;30.17;;;20.85;;
12177;SDS011;6152;48.728;9.256;2022-09-01T04:46:31;30.83;;;21.27;;
12177;SDS011;6152;48.728;9.256;2022-09-01T04:49:00;28.85;;;19.85;;
12177;SDS011;6152;48.728;9.256;2022-09-01T04:51:32;31.25;;;21.25;;
12177;SDS011;6152;48.728;9.256;2022-09-01T04:54:00;30.17;;;20.60;;
12177;SDS011;6152;48.728;9.256;2022-09-01T04:56:26;30.50;;;19.60;;
12177;SDS011;6152;48.728;9.256;2022-09-01T04:59:00;29.42;;;20.40;;
12177;SDS011;6152;48.728;9.256;2022-09-01T05:01:30;25.10;;;19.20;;
12177;SDS011;6152;48.728;9.256;2022-09-01T05:04:07;27.55;;;19.17;;
12177;SDS011;6152;48.728;9.256;2022-09-01T05:06:41;26.20;;;18.02;;
12177;SDS011;6152;48.728;9.256;2022-09-01T05:09:10;26.70;;;18.90;;
12177;SDS011;6152;48.728;9.256;2022-09-01T05:11:38;26.45;;;18.00;;
12177;SDS011;6152;48.728;9.256;2022-09-01T05:14:05;26.75;;;17.48;;
12177;SDS011;6152;48.728;9.256;2022-09-01T05:16:32;24.30;;;16.83;;
12177;SDS011;6152;48.728;9.256;2022-09-01T05:18:59;22.20;;;16.73;;
12177;SDS011;6152;48.728;9.256;2022-09-01T05:21:26;23.98;;;17.52;;
12177;SDS011;6152;48.728;9.256;2022-09-01T05:23:54;23.63;;;15.95;;
12177;SDS011;6152;48.728;9.256;2022-09-01T05:26:29;23.33;;;17.08;;
12177;SDS011;6152;48.728;9.256;2022-09-01T05:28:59;21.27;;;15.23;;
12177;SDS011;6152;48.728;9.256;2022-09-01T05:31:27;22.80;;;16.58;;
12177;SDS011;6152;48.728;9.256;2022-09-01T05:33:58;21.00;;;15.45;;
12177;SDS011;6152;48.728;9.256;2022-09-01T05:36:27;22.20;;;15.88;;
12177;SDS011;6152;48.728;9.256;2022-09-01T05:38:57;22.70;;;16.90;;
12177;SDS011;6152;48.728;9.256;2022-09-01T05:41:24;23.70;;;16.45;;
12177;SDS011;6152;48.728;9.256;2022-09-01T05:43:51;23.30;;;15.82;;
12177;SDS011;6152;48.728;9.256;2022-09-01T05:46:21;23.38;;;16.33;;
12177;SDS011;6152;48.728;9.256;2022-09-01T05:48:50;23.33;;;16.45;;
12177;SDS011;6152;48.728;9.256;2022-09-01T05:51:19;25.30;;;17.02;;
12177;SDS011;6152;48.728;9.256;2022-09-01T05:53:48;23.30;;;17.38;;
12177;SDS011;6152;48.728;9.256;2022-09-01T05:56:19;21.88;;;16.92;;
12177;SDS011;6152;48.728;9.256;2022-09-01T05:58:48;25.70;;;17.58;;
12177;SDS011;6152;48.728;9.256;2022-09-01T06:01:17;22.65;;;16.33;;
12177;SDS011;6152;48.728;9.256;2022-09-01T06:03:49;23.75;;;17.42;;
12177;SDS011;6152;48.728;9.256;2022-09-01T06:06:19;23.55;;;16.45;;
12177;SDS011;6152;48.728;9.256;2022-09-01T06:08:47;22.40;;;16.55;;
12177;SDS011;6152;48.728;9.256;2022-09-01T06:11:15;21.17;;;15.60;;
12177;SDS011;6152;48.728;9.256;2022-09-01T06:13:42;21.98;;;15.90;;
12177;SDS011;6152;48.728;9.256;2022-09-01T06:16:11;19.95;;;14.68;;
12177;SDS011;6152;48.728;9.256;2022-09-01T06:18:41;19.48;;;14.82;;
12177;SDS011;6152;48.728;9.256;2022-09-01T06:21:08;21.30;;;14.50;;
12177;SDS011;6152;48.728;9.256;2022-09-01T06:23:39;17.65;;;13.25;;
12177;SDS011;6152;48.728;9.256;2022-09-01T06:26:06;18.25;;;13.27;;
12177;SDS011;6152;48.728;9.256;2022-09-01T06:28:43;16.33;;;13.05;;
12177;SDS011;6152;48.728;9.256;2022-09-01T06:31:09;18.10;;;13.27;;
12177;SDS011;6152;48.728;9.256;2022-09-01T06:33:36;16.25;;;12.75;;
12177;SDS011;6152;48.728;9.256;2022-09-01T06:36:03;15.95;;;12.73;;
12177;SDS011;6152;48.728;9.256;2022-09-01T06:38:29;16.08;;;13.02;;
12177;SDS011;6152;48.728;9.256;2022-09-01T06:40:59;15.32;;;12.32;;
12177;SDS011;6152;48.728;9.256;2022-09-01T06:43:28;15.95;;;12.35;;
12177;SDS011;6152;48.728;9.256;2022-09-01T06:45:55;16.73;;;12.20;;
12177;SDS011;6152;48.728;9.256;2022-09-01T06:48:25;14.27;;;11.57;;
12177;SDS011;6152;48.728;9.256;2022-09-01T06:50:51;13.32;;;11.00;;
12177;SDS011;6152;48.728;9.256;2022-09-01T06:53:17;13.90;;;11.10;;
12177;SDS011;6152;48.728;9.256;2022-09-01T06:55:47;12.43;;;10.55;;
12177;SDS011;6152;48.728;9.256;2022-09-01T06:58:13;12.88;;;11.00;;
12177;SDS011;6152;48.728;9.256;2022-09-01T07:00:40;13.60;;;11.20;;
12177;SDS011;6152;48.728;9.256;2022-09-01T07:03:07;13.48;;;10.57;;
12177;SDS011;6152;48.728;9.256;2022-09-01T07:05:41;12.73;;;10.75;;
12177;SDS011;6152;48.728;9.256;2022-09-01T07:08:14;12.65;;;10.35;;
12177;SDS011;6152;48.728;9.256;2022-09-01T07:10:47;13.73;;;10.63;;
12177;SDS011;6152;48.728;9.256;2022-09-01T07:13:15;13.57;;;9.88;;
12177;SDS011;6152;48.728;9.256;2022-09-01T07:15:46;13.40;;;10.57;;
12177;SDS011;6152;48.728;9.256;2022-09-01T07:18:21;13.35;;;9.65;;
12177;SDS011;6152;48.728;9.256;2022-09-01T07:20:52;13.15;;;9.85;;
12177;SDS011;6152;48.728;9.256;2022-09-01T07:23:19;13.25;;;9.52;;
12177;SDS011;6152;48.728;9.256;2022-09-01T07:25:47;11.30;;;8.90;;
12177;SDS011;6152;48.728;9.256;2022-09-01T07:28:19;12.68;;;10.32;;
12177;SDS011;6152;48.728;9.256;2022-09-01T07:30:48;12.63;;;10.27;;
12177;SDS011;6152;48.728;9.256;2022-09-01T07:33:18;11.82;;;9.77;;
12177;SDS011;6152;48.728;9.256;2022-09-01T07:35:48;13.20;;;10.23;;
12177;SDS011;6152;48.728;9.256;2022-09-01T07:38:19;12.10;;;10.00;;
12177;SDS011;6152;48.728;9.256;2022-09-01T07:40:46;12.13;;;9.95;;
12177;SDS011;6152;48.728;9.256;2022-09-01T07:43:16;12.27;;;9.90;;
12177;SDS011;6152;48.728;9.256;2022-09-01T07:45:49;14.65;;;11.02;;
12177;SDS011;6152;48.728;9.256;2022-09-01T07:48:20;12.55;;;11.10;;
12177;SDS011;6152;48.728;9.256;2022-09-01T07:50:49;12.95;;;10.95;;
12177;SDS011;6152;48.728;9.256;2022-09-01T07:53:18;15.68;;;11.55;;
12177;SDS011;6152;48.728;9.256;2022-09-01T07:55:55;13.13;;;10.55;;
12177;SDS011;6152;48.728;9.256;2022-09-01T07:58:25;14.40;;;10.07;;
12177;SDS011;6152;48.728;9.256;2022-09-01T08:00:52;12.02;;;9.48;;
12177;SDS011;6152;48.728;9.256;2022-09-01T08:03:27;11.73;;;9.88;;
12177;SDS011;6152;48.728;9.256;2022-09-01T08:05:54;10.38;;;9.13;;
12177;SDS011;6152;48.728;9.256;2022-09-01T08:08:27;10.18;;;9.05;;
12177;SDS011;6152;48.728;9.256;2022-09-01T08:10:54;10.68;;;9.18;;
12177;SDS011;6152;48.728;9.256;2022-09-01T08:13:20;10.80;;;9.63;;
12177;SDS011;6152;48.728;9.256;2022-09-01T08:15:46;10.80;;;9.05;;
12177;SDS011;6152;48.728;9.256;2022-09-01T08:18:12;10.00;;;8.80;;
12177;SDS011;6152;48.728;9.256;2022-09-01T08:20:39;9.63;;;8.57;;
12177;SDS011;6152;48.728;9.256;2022-09-01T08:23:09;9.90;;;8.48;;
12177;SDS011;6152;48.728;9.256;2022-09-01T08:25:37;10.52;;;8.05;;
12177;SDS011;6152;48.728;9.256;2022-09-01T08:28:06;10.52;;;8.13;;
12177;SDS011;6152;48.728;9.256;2022-09-01T08:30:33;9.32;;;8.18;;
12177;SDS011;6152;48.728;9.256;2022-09-01T08:33:00;8.48;;;7.55;;
12177;SDS011;6152;48.728;9.256;2022-09-01T08:35:27;9.23;;;7.57;;
12177;SDS011;6152;48.728;9.256;2022-09-01T08:37:53;10.55;;;7.40;;
12177;SDS011;6152;48.728;9.256;2022-09-01T08:40:21;9.55;;;7.53;;
12177;SDS011;6152;48.728;9.256;2022-09-01T08:48:38;7.13;;;6.40;;
12177;SDS011;6152;48.728;9.256;2022-09-01T08:51:10;7.43;;;6.20;;
12177;SDS011;6152;48.728;9.256;2022-09-01T08:54:00;7.53;;;6.78;;
12177;SDS011;6152;48.728;9.256;2022-09-01T08:56:46;7.05;;;6.28;;
12177;SDS011;6152;48.728;9.256;2022-09-01T08:59:18;9.15;;;6.03;;
12177;SDS011;6152;48.728;9.256;2022-09-01T09:09:18;6.50;;;5.90;;
12177;SDS011;6152;48.728;9.256;2022-09-01T09:12:03;7.03;;;6.32;;
12177;SDS011;6152;48.728;9.256;2022-09-01T09:17:21;6.18;;;5.57;;
12177;SDS011;6152;48.728;9.256;2022-09-01T09:19:53;6.93;;;5.90;;
12177;SDS011;6152;48.728;9.256;2022-09-01T09:22:19;5.30;;;4.85;;
12177;SDS011;6152;48.728;9.256;2022-09-01T09:24:50;5.65;;;5.15;;
12177;SDS011;6152;48.728;9.256;2022-09-01T09:27:34;5.22;;;4.72;;
12177;SDS011;6152;48.728;9.256;2022-09-01T09:30:10;4.95;;;4.53;;
12177;SDS011;6152;48.728;9.256;2022-09-01T09:32:42;5.70;;;4.40;;
12177;SDS011;6152;48.728;9.256;2022-09-01T09:37:47;5.68;;;4.80;;
12177;SDS011;6152;48.728;9.256;2022-09-01T09:47:49;3.60;;;3.33;;
12177;SDS011;6152;48.728;9.256;2022-09-01T09:50:19;4.07;;;3.70;;
12177;SDS011;6152;48.728;9.256;2022-09-01T09:53:14;6.57;;;3.40;;
12177;SDS011;6152;48.728;9.256;2022-09-01T09:58:27;3.85;;;3.25;;
12177;SDS011;6152;48.728;9.256;2022-09-01T10:03:43;2.42;;;2.22;;
12177;SDS011;6152;48.728;9.256;2022-09-01T10:06:16;2.88;;;2.40;;
12177;SDS011;6152;48.728;9.256;2022-09-01T10:08:54;3.33;;;2.58;;
12177;SDS011;6152;48.728;9.256;2022-09-01T10:11:25;3.10;;;2.80;;
12177;SDS011;6152;48.728;9.256;2022-09-01T10:13:55;2.95;;;2.28;;
12177;SDS011;6152;48.728;9.256;2022-09-01T10:16:24;2.40;;;2.30;;
12177;SDS011;6152;48.728;9.256;2022-09-01T10:18:54;3.22;;;3.00;;
12177;SDS011;6152;48.728;9.256;2022-09-01T10:21:30;2.80;;;2.60;;
12177;SDS011;6152;48.728;9.256;2022-09-01T10:23:59;3.20;;;2.95;;
12177;SDS011;6152;48.728;9.256;2022-09-01T10:26:30;3.78;;;2.78;;
12177;SDS011;6152;48.728;9.256;2022-09-01T10:29:02;3.30;;;3.00;;
12177;SDS011;6152;48.728;9.256;2022-09-01T10:31:34;2.85;;;2.65;;
12177;SDS011;6152;48.728;9.256;2022-09-01T10:34:01;2.60;;;2.40;;
12177;SDS011;6152;48.728;9.256;2022-09-01T10:36:30;3.08;;;2.88;;
12177;SDS011;6152;48.728;9.256;2022-09-01T10:38:58;2.97;;;2.67;;
12177;SDS011;6152;48.728;9.256;2022-09-01T10:44:22;2.55;;;2.28;;
12177;SDS011;6152;48.728;9.256;2022-09-01T10:46:54;2.88;;;2.67;;
12177;SDS011;6152;48.728;9.256;2022-09-01T10:51:52;2.20;;;2.10;;
12177;SDS011;6152;48.728;9.256;2022-09-01T10:57:11;2.35;;;2.15;;
12177;SDS011;6152;48.728;9.256;2022-09-01T10:59:45;2.45;;;2.25;;
12177;SDS011;6152;48.728;9.256;2022-09-01T11:02:18;2.47;;;2.28;;
12177;SDS011;6152;48.728;9.256;2022-09-01T11:15:33;3.58;;;2.00;;
12177;SDS011;6152;48.728;9.256;2022-09-01T11:18:13;2.45;;;2.10;;
12177;SDS011;6152;48.728;9.256;2022-09-01T11:20:41;1.85;;;1.83;;
12177;SDS011;6152;48.728;9.256;2022-09-01T11:23:10;2.38;;;2.17;;
12177;SDS011;6152;48.728;9.256;2022-09-01T11:28:50;2.20;;;2.10;;
12177;SDS011;6152;48.728;9.256;2022-09-01T11:31:18;2.58;;;2.17;;
12177;SDS011;6152;48.728;9.256;2022-09-01T11:34:17;2.53;;;2.33;;
12177;SDS011;6152;48.728;9.256;2022-09-01T11:36:51;2.00;;;1.90;;
12177;SDS011;6152;48.728;9.256;2022-09-01T11:41:58;2.20;;;2.10;;
12177;SDS011;6152;48.728;9.256;2022-09-01T11:44:27;2.13;;;1.90;;
12177;SDS011;6152;48.728;9.256;2022-09-01T11:47:04;2.35;;;2.10;;
12177;SDS011;6152;48.728;9.256;2022-09-01T11:49:45;1.98;;;1.88;;
12177;SDS011;6152;48.728;9.256;2022-09-01T11:52:15;2.22;;;2.13;;
12177;SDS011;6152;48.728;9.256;2022-09-01T11:54:43;2.10;;;2.00;;
12177;SDS011;6152;48.728;9.256;2022-09-01T11:57:20;2.30;;;2.20;;
12177;SDS011;6152;48.728;9.256;2022-09-01T11:59:52;1.90;;;1.80;;
12177;SDS011;6152;48.728;9.256;2022-09-01T12:02:20;1.70;;;1.60;;
12177;SDS011;6152;48.728;9.256;2022-09-01T12:04:52;2.35;;;1.95;;
12177;SDS011;6152;48.728;9.256;2022-09-01T12:07:28;1.98;;;1.88;;
12177;SDS011;6152;48.728;9.256;2022-09-01T12:09:58;2.30;;;2.10;;
12177;SDS011;6152;48.728;9.256;2022-09-01T12:12:37;1.90;;;1.80;;
12177;SDS011;6152;48.728;9.256;2022-09-01T12:15:54;2.22;;;2.13;;
12177;SDS011;6152;48.728;9.256;2022-09-01T12:18:23;2.22;;;1.70;;
12177;SDS011;6152;48.728;9.256;2022-09-01T12:20:52;1.73;;;1.73;;
12177;SDS011;6152;48.728;9.256;2022-09-01T12:25:50;2.28;;;2.08;;
12177;SDS011;6152;48.728;9.256;2022-09-01T12:28:19;2.70;;;2.50;;
12177;SDS011;6152;48.728;9.256;2022-09-01T12:30:47;2.20;;;2.10;;
12177;SDS011;6152;48.728;9.256;2022-09-01T12:33:16;2.30;;;2.20;;
12177;SDS011;6152;48.728;9.256;2022-09-01T12:35:43;2.33;;;2.22;;
12177;SDS011;6152;48.728;9.256;2022-09-01T12:38:29;2.53;;;2.33;;
12177;SDS011;6152;48.728;9.256;2022-09-01T12:40:55;2.53;;;2.42;;
12177;SDS011;6152;48.728;9.256;2022-09-01T12:43:37;2.97;;;2.80;;
12177;SDS011;6152;48.728;9.256;2022-09-01T12:46:05;2.50;;;2.40;;
12177;SDS011;6152;48.728;9.256;2022-09-01T12:48:37;3.75;;;2.90;;
12177;SDS011;6152;48.728;9.256;2022-09-01T12:51:18;2.95;;;2.72;;
12177;SDS011;6152;48.728;9.256;2022-09-01T12:53:53;3.00;;;2.80;;
12177;SDS011;6152;48.728;9.256;2022-09-01T12:56:25;2.97;;;2.67;;
12177;SDS011;6152;48.728;9.256;2022-09-01T12:59:40;2.40;;;2.30;;
12177;SDS011;6152;48.728;9.256;2022-09-01T13:01:49;2.45;;;2.35;;
12177;SDS011;6152;48.728;9.256;2022-09-01T13:06:50;2.47;;;2.35;;
12177;SDS011;6152;48.728;9.256;2022-09-01T13:09:18;2.30;;;2.20;;
12177;SDS011;6152;48.728;9.256;2022-09-01T13:11:45;2.70;;;2.50;;
12177;SDS011;6152;48.728;9.256;2022-09-01T13:14:12;2.60;;;2.40;;
12177;SDS011;6152;48.728;9.256;2022-09-01T13:16:39;2.47;;;2.28;;
12177;SDS011;6152;48.728;9.256;2022-09-01T13:19:06;2.53;;;2.42;;
12177;SDS011;6152;48.728;9.256;2022-09-01T13:21:33;2.80;;;2.60;;
12177;SDS011;6152;48.728;9.256;2022-09-01T13:24:00;3.03;;;2.83;;
12177;SDS011;6152;48.728;9.256;2022-09-01T13:26:30;3.40;;;3.10;;
12177;SDS011;6152;48.728;9.256;2022-09-01T13:28:57;2.53;;;2.42;;
12177;SDS011;6152;48.728;9.256;2022-09-01T13:31:24;3.30;;;3.03;;
12177;SDS011;6152;48.728;9.256;2022-09-01T13:33:52;3.17;;;3.03;;
12177;SDS011;6152;48.728;9.256;2022-09-01T13:36:18;3.00;;;2.80;;
12177;SDS011;6152;48.728;9.256;2022-09-01T13:38:45;3.00;;;2.80;;
12177;SDS011;6152;48.728;9.256;2022-09-01T13:41:11;2.60;;;2.50;;
12177;SDS011;6152;48.728;9.256;2022-09-01T13:43:39;2.70;;;2.50;;
12177;SDS011;6152;48.728;9.256;2022-09-01T13:46:05;3.17;;;2.80;;
12177;SDS011;6152;48.728;9.256;2022-09-01T13:48:31;2.92;;;2.75;;
12177;SDS011;6152;48.728;9.256;2022-09-01T13:50:59;3.50;;;3.05;;
12177;SDS011;6152;48.728;9.256;2022-09-01T13:53:26;3.95;;;2.70;;
12177;SDS011;6152;48.728;9.256;2022-09-01T13:55:52;2.80;;;2.70;;
12177;SDS011;6152;48.728;9.256;2022-09-01T13:58:18;3.28;;;3.08;;
12177;SDS011;6152;48.728;9.256;2022-09-01T14:00:45;3.85;;;3.05;;
12177;SDS011;6152;48.728;9.256;2022-09-01T14:03:15;3.25;;;3.05;;
12177;SDS011;6152;48.728;9.256;2022-09-01T14:05:46;4.00;;;3.13;;
12177;SDS011;6152;48.728;9.256;2022-09-01T14:08:13;3.08;;;2.88;;
12177;SDS011;6152;48.728;9.256;2022-09-01T14:10:43;3.72;;;3.25;;
12177;SDS011;6152;48.728;9.256;2022-09-01T14:13:13;3.53;;;2.90;;
12177;SDS011;6152;48.728;9.256;2022-09-01T14:15:39;3.55;;;3.25;;
12177;SDS011;6152;48.728;9.256;2022-09-01T14:18:05;2.83;;;2.65;;
12177;SDS011;6152;48.728;9.256;2022-09-01T14:20:33;2.72;;;2.53;;
12177;SDS011;6152;48.728;9.256;2022-09-01T14:23:04;2.67;;;2.47;;
12177;SDS011;6152;48.728;9.256;2022-09-01T14:25:31;2.50;;;2.30;;
12177;SDS011;6152;48.728;9.256;2022-09-01T14:27:59;2.60;;;2.45;;
12177;SDS011;6152;48.728;9.256;2022-09-01T14:30:27;2.75;;;2.30;;
12177;SDS011;6152;48.728;9.256;2022-09-01T14:32:54;2.38;;;2.17;;
12177;SDS011;6152;48.728;9.256;2022-09-01T14:35:22;1.92;;;1.80;;
12177;SDS011;6152;48.728;9.256;2022-09-01T14:37:49;2.28;;;2.17;;
12177;SDS011;6152;48.728;9.256;2022-09-01T14:40:17;2.40;;;2.20;;
12177;SDS011;6152;48.728;9.256;2022-09-01T14:42:46;2.25;;;2.15;;
12177;SDS011;6152;48.728;9.256;2022-09-01T14:45:16;2.05;;;1.95;;
12177;SDS011;6152;48.728;9.256;2022-09-01T14:47:45;2.05;;;1.95;;
12177;SDS011;6152;48.728;9.256;2022-09-01T14:50:13;2.13;;;2.03;;
12177;SDS011;6152;48.728;9.256;2022-09-01T14:52:40;3.38;;;2.15;;
12177;SDS011;6152;48.728;9.256;2022-09-01T14:55:07;2.88;;;2.30;;
12177;SDS011;6152;48.728;9.256;2022-09-01T14:57:33;4.30;;;1.90;;
12177;SDS011;6152;48.728;9.256;2022-09-01T14:59:59;2.45;;;2.25;;
12177;SDS011;6152;48.728;9.256;2022-09-01T15:02:26;1.98;;;1.80;;
12177;SDS011;6152;48.728;9.256;2022-09-01T15:04:53;2.80;;;2.40;;
12177;SDS011;6152;48.728;9.256;2022-09-01T15:07:21;2.38;;;2.10;;
12177;SDS011;6152;48.728;9.256;2022-09-01T15:09:47;2.38;;;2.17;;
12177;SDS011;6152;48.728;9.256;2022-09-01T15:12:14;2.20;;;2.10;;
12177;SDS011;6152;48.728;9.256;2022-09-01T15:14:40;2.78;;;2.53;;
12177;SDS011;6152;48.728;9.256;2022-09-01T15:17:06;2.90;;;2.70;;
12177;SDS011;6152;48.728;9.256;2022-09-01T15:19:33;2.08;;;1.98;;
12177;SDS011;6152;48.728;9.256;2022-09-01T15:21:59;2.35;;;2.25;;
12177;SDS011;6152;48.728;9.256;2022-09-01T15:24:26;2.92;;;2.30;;
12177;SDS011;6152;48.728;9.256;2022-09-01T15:26:52;2.50;;;2.22;;
12177;SDS011;6152;48.728;9.256;2022-09-01T15:29:18;2.20;;;2.10;;
12177;SDS011;6152;48.728;9.256;2022-09-01T15:31:45;2.00;;;1.90;;
12177;SDS011;6152;48.728;9.256;2022-09-01T15:34:11;2.42;;;2.33;;
12177;SDS011;6152;48.728;9.256;2022-09-01T15:36:38;2.45;;;2.33;;
12177;SDS011;6152;48.728;9.256;2022-09-01T15:39:06;2.75;;;2.45;;
12177;SDS011;6152;48.728;9.256;2022-09-01T15:41:33;2.85;;;2.65;;
12177;SDS011;6152;48.728;9.256;2022-09-01T15:44:01;2.72;;;2.50;;
12177;SDS011;6152;48.728;9.256;2022-09-01T15:46:32;2.78;;;2.58;;
12177;SDS011;6152;48.728;9.256;2022-09-01T15:49:01;3.17;;;2.20;;
12177;SDS011;6152;48.728;9.256;2022-09-01T15:51:31;2.47;;;2.08;;
12177;SDS011;6152;48.728;9.256;2022-09-01T15:53:59;2.92;;;2.60;;
12177;SDS011;6152;48.728;9.256;2022-09-01T15:56:39;3.83;;;2.30;;
12177;SDS011;6152;48.728;9.256;2022-09-01T15:59:07;2.92;;;2.72;;
12177;SDS011;6152;48.728;9.256;2022-09-01T16:01:35;2.95;;;2.75;;
12177;SDS011;6152;48.728;9.256;2022-09-01T16:04:05;2.47;;;2.38;;
12177;SDS011;6152;48.728;9.256;2022-09-01T16:06:33;2.50;;;2.40;;
12177;SDS011;6152;48.728;9.256;2022-09-01T16:08:59;2.85;;;2.47;;
12177;SDS011;6152;48.728;9.256;2022-09-01T16:11:26;2.47;;;2.38;;
12177;SDS011;6152;48.728;9.256;2022-09-01T16:13:52;3.03;;;2.88;;